sensor_id;sensor_type;location;lat;lon;timestamp;temperature;humidity
52555;DHT22;38455;52.710;6.502;2022-09-09T00:03:47;14.00;99.90
52555;DHT22;38455;52.710;6.502;2022-09-09T00:06:28;14.00;99.90
52555;DHT22;38455;52.710;6.502;2022-09-09T00:09:12;14.00;99.90
52555;DHT22;38455;52.710;6.502;2022-09-09T00:12:14;14.00;99.90
52555;DHT22;38455;52.710;6.502;2022-09-09T00:26:03;14.10;99.90
52555;DHT22;38455;52.710;6.502;2022-09-09T00:28:31;14.20;99.90
52555;DHT22;38455;52.710;6.502;2022-09-09T00:31:08;14.10;99.90
52555;DHT22;38455;52.710;6.502;2022-09-09T00:33:36;14.20;99.90
52555;DHT22;38455;52.710;6.502;2022-09-09T00:36:12;14.30;99.90
52555;DHT22;38455;52.710;6.502;2022-09-09T00:41:42;14.30;99.90
52555;DHT22;38455;52.710;6.502;2022-09-09T00:44:26;14.40;99.90
52555;DHT22;38455;52.710;6.502;2022-09-09T00:47:09;14.50;99.90
52555;DHT22;38455;52.710;6.502;2022-09-09T00:49:52;14.50;99.90
52555;DHT22;38455;52.710;6.502;2022-09-09T00:52:34;14.50;99.90
52555;DHT22;38455;52.710;6.502;2022-09-09T00:55:20;14.60;99.90
52555;DHT22;38455;52.710;6.502;2022-09-09T00:57:49;14.60;99.90
52555;DHT22;38455;52.710;6.502;2022-09-09T01:05:17;14.70;99.90
52555;DHT22;38455;52.710;6.502;2022-09-09T01:07:47;14.70;99.90
52555;DHT22;38455;52.710;6.502;2022-09-09T01:10:43;14.70;99.90
52555;DHT22;38455;52.710;6.502;2022-09-09T01:13:24;14.80;99.90
52555;DHT22;38455;52.710;6.502;2022-09-09T01:15:51;14.80;99.90
52555;DHT22;38455;52.710;6.502;2022-09-09T01:18:21;14.90;99.90
52555;DHT22;38455;52.710;6.502;2022-09-09T01:20:58;14.90;99.90
52555;DHT22;38455;52.710;6.502;2022-09-09T01:26:27;14.90;99.90
52555;DHT22;38455;52.710;6.502;2022-09-09T01:28:55;14.90;99.90
52555;DHT22;38455;52.710;6.502;2022-09-09T01:31:30;15.00;99.90
52555;DHT22;38455;52.710;6.502;2022-09-09T01:33:56;15.00;99.90
52555;DHT22;38455;52.710;6.502;2022-09-09T01:36:32;14.90;99.90
52555;DHT22;38455;52.710;6.502;2022-09-09T01:39:00;14.90;99.90
52555;DHT22;38455;52.710;6.502;2022-09-09T01:41:26;15.00;99.90
52555;DHT22;38455;52.710;6.502;2022-09-09T01:43:53;15.00;99.90
52555;DHT22;38455;52.710;6.502;2022-09-09T01:46:21;15.00;99.90
52555;DHT22;38455;52.710;6.502;2022-09-09T01:48:49;15.00;99.90
52555;DHT22;38455;52.710;6.502;2022-09-09T01:51:15;15.00;99.90
52555;DHT22;38455;52.710;6.502;2022-09-09T01:53:41;15.00;99.90
52555;DHT22;38455;52.710;6.502;2022-09-09T01:56:30;15.00;99.90
52555;DHT22;38455;52.710;6.502;2022-09-09T02:02:09;15.00;99.90
52555;DHT22;38455;52.710;6.502;2022-09-09T02:04:53;15.00;99.90
52555;DHT22;38455;52.710;6.502;2022-09-09T02:09:47;15.00;99.90
52555;DHT22;38455;52.710;6.502;2022-09-09T02:12:18;15.00;99.90
52555;DHT22;38455;52.710;6.502;2022-09-09T02:14:52;15.00;99.90
52555;DHT22;38455;52.710;6.502;2022-09-09T02:17:26;15.00;99.90
52555;DHT22;38455;52.710;6.502;2022-09-09T02:20:02;15.00;99.90
52555;DHT22;38455;52.710;6.502;2022-09-09T02:22:30;15.00;99.90
52555;DHT22;38455;52.710;6.502;2022-09-09T02:25:00;15.00;99.90
52555;DHT22;38455;52.710;6.502;2022-09-09T02:27:25;14.90;99.90
52555;DHT22;38455;52.710;6.502;2022-09-09T02:29:53;14.90;99.90
52555;DHT22;38455;52.710;6.502;2022-09-09T02:32:22;14.90;99.90
52555;DHT22;38455;52.710;6.502;2022-09-09T02:34:53;14.90;99.90
52555;DHT22;38455;52.710;6.502;2022-09-09T02:37:23;14.90;99.90
52555;DHT22;38455;52.710;6.502;2022-09-09T02:39:50;14.90;99.90
52555;DHT22;38455;52.710;6.502;2022-09-09T02:42:16;14.80;99.90
52555;DHT22;38455;52.710;6.502;2022-09-09T02:44:42;14.90;99.90
52555;DHT22;38455;52.710;6.502;2022-09-09T02:52:42;14.90;99.90
52555;DHT22;38455;52.710;6.502;2022-09-09T02:55:17;14.80;99.90
52555;DHT22;38455;52.710;6.502;2022-09-09T02:57:44;14.90;99.90
52555;DHT22;38455;52.710;6.502;2022-09-09T03:00:13;14.80;99.90
52555;DHT22;38455;52.710;6.502;2022-09-09T03:02:38;14.80;99.90
52555;DHT22;38455;52.710;6.502;2022-09-09T03:05:05;14.80;99.90
52555;DHT22;38455;52.710;6.502;2022-09-09T03:07:31;14.90;99.90
52555;DHT22;38455;52.710;6.502;2022-09-09T03:09:57;14.90;99.90
52555;DHT22;38455;52.710;6.502;2022-09-09T03:12:23;14.80;99.90
52555;DHT22;38455;52.710;6.502;2022-09-09T03:14:49;14.90;99.90
52555;DHT22;38455;52.710;6.502;2022-09-09T03:17:15;14.90;99.90
52555;DHT22;38455;52.710;6.502;2022-09-09T03:19:41;14.80;99.90
52555;DHT22;38455;52.710;6.502;2022-09-09T03:22:08;14.90;99.90
52555;DHT22;38455;52.710;6.502;2022-09-09T03:24:35;14.90;99.90
52555;DHT22;38455;52.710;6.502;2022-09-09T03:27:00;14.90;99.90
52555;DHT22;38455;52.710;6.502;2022-09-09T03:29:26;14.80;99.90
52555;DHT22;38455;52.710;6.502;2022-09-09T03:31:52;14.90;99.90
52555;DHT22;38455;52.710;6.502;2022-09-09T03:34:17;14.80;99.90
52555;DHT22;38455;52.710;6.502;2022-09-09T03:36:43;14.80;99.90
52555;DHT22;38455;52.710;6.502;2022-09-09T03:39:08;14.80;99.90
52555;DHT22;38455;52.710;6.502;2022-09-09T03:41:34;14.80;99.90
52555;DHT22;38455;52.710;6.502;2022-09-09T03:44:00;14.80;99.90
52555;DHT22;38455;52.710;6.502;2022-09-09T03:46:26;14.80;99.90
52555;DHT22;38455;52.710;6.502;2022-09-09T03:48:52;14.70;99.90
52555;DHT22;38455;52.710;6.502;2022-09-09T03:51:18;14.70;99.90
52555;DHT22;38455;52.710;6.502;2022-09-09T03:53:43;14.70;99.90
52555;DHT22;38455;52.710;6.502;2022-09-09T03:56:09;14.70;99.90
52555;DHT22;38455;52.710;6.502;2022-09-09T03:58:36;14.70;99.90
52555;DHT22;38455;52.710;6.502;2022-09-09T04:01:08;14.70;99.90
52555;DHT22;38455;52.710;6.502;2022-09-09T04:03:38;14.70;99.90
52555;DHT22;38455;52.710;6.502;2022-09-09T04:06:06;14.60;99.90
52555;DHT22;38455;52.710;6.502;2022-09-09T04:08:33;14.60;99.90
52555;DHT22;38455;52.710;6.502;2022-09-09T04:10:59;14.60;99.90
52555;DHT22;38455;52.710;6.502;2022-09-09T04:13:25;14.60;99.90
52555;DHT22;38455;52.710;6.502;2022-09-09T04:18:18;14.50;99.90
52555;DHT22;38455;52.710;6.502;2022-09-09T04:20:47;14.50;99.90
52555;DHT22;38455;52.710;6.502;2022-09-09T04:23:13;14.50;99.90
52555;DHT22;38455;52.710;6.502;2022-09-09T04:25:44;14.50;99.90
52555;DHT22;38455;52.710;6.502;2022-09-09T04:28:10;14.50;99.90
52555;DHT22;38455;52.710;6.502;2022-09-09T04:30:35;14.50;99.90
52555;DHT22;38455;52.710;6.502;2022-09-09T04:33:01;14.50;99.90
52555;DHT22;38455;52.710;6.502;2022-09-09T04:35:27;14.40;99.90
52555;DHT22;38455;52.710;6.502;2022-09-09T04:37:52;14.30;99.90
52555;DHT22;38455;52.710;6.502;2022-09-09T04:40:18;14.40;99.90
52555;DHT22;38455;52.710;6.502;2022-09-09T04:42:43;14.40;99.90
52555;DHT22;38455;52.710;6.502;2022-09-09T04:45:09;14.30;99.90
52555;DHT22;38455;52.710;6.502;2022-09-09T04:47:36;14.30;99.90
52555;DHT22;38455;52.710;6.502;2022-09-09T04:50:02;14.30;99.90
52555;DHT22;38455;52.710;6.502;2022-09-09T04:52:28;14.30;99.90
52555;DHT22;38455;52.710;6.502;2022-09-09T04:54:53;14.30;99.90
52555;DHT22;38455;52.710;6.502;2022-09-09T04:57:19;14.20;99.90
52555;DHT22;38455;52.710;6.502;2022-09-09T04:59:45;14.20;99.90
52555;DHT22;38455;52.710;6.502;2022-09-09T05:02:11;14.20;99.90
52555;DHT22;38455;52.710;6.502;2022-09-09T05:04:37;14.10;99.90
52555;DHT22;38455;52.710;6.502;2022-09-09T05:07:03;14.10;99.90
52555;DHT22;38455;52.710;6.502;2022-09-09T05:09:28;14.10;99.90
52555;DHT22;38455;52.710;6.502;2022-09-09T05:11:54;14.10;99.90
52555;DHT22;38455;52.710;6.502;2022-09-09T05:14:21;14.10;99.90
52555;DHT22;38455;52.710;6.502;2022-09-09T05:16:48;14.10;99.90
52555;DHT22;38455;52.710;6.502;2022-09-09T05:19:15;14.10;99.90
52555;DHT22;38455;52.710;6.502;2022-09-09T05:21:41;14.10;99.90
52555;DHT22;38455;52.710;6.502;2022-09-09T05:24:07;14.10;99.90
52555;DHT22;38455;52.710;6.502;2022-09-09T05:26:32;14.10;99.90
52555;DHT22;38455;52.710;6.502;2022-09-09T05:28:58;14.10;99.90
52555;DHT22;38455;52.710;6.502;2022-09-09T05:31:25;14.30;99.90
52555;DHT22;38455;52.710;6.502;2022-09-09T05:33:53;14.30;99.90
52555;DHT22;38455;52.710;6.502;2022-09-09T05:36:20;14.40;99.90
52555;DHT22;38455;52.710;6.502;2022-09-09T05:38:47;14.50;99.90
52555;DHT22;38455;52.710;6.502;2022-09-09T05:41:14;14.60;99.90
52555;DHT22;38455;52.710;6.502;2022-09-09T05:43:43;14.70;99.90
52555;DHT22;38455;52.710;6.502;2022-09-09T05:46:30;14.80;99.90
52555;DHT22;38455;52.710;6.502;2022-09-09T05:48:55;14.80;99.90
52555;DHT22;38455;52.710;6.502;2022-09-09T05:51:25;14.80;99.90
52555;DHT22;38455;52.710;6.502;2022-09-09T05:53:52;14.90;99.90
52555;DHT22;38455;52.710;6.502;2022-09-09T05:56:20;14.90;99.90
52555;DHT22;38455;52.710;6.502;2022-09-09T05:58:47;15.00;99.90
52555;DHT22;38455;52.710;6.502;2022-09-09T06:01:26;15.00;99.90
52555;DHT22;38455;52.710;6.502;2022-09-09T06:03:53;15.00;99.90
52555;DHT22;38455;52.710;6.502;2022-09-09T06:06:20;15.10;99.90
52555;DHT22;38455;52.710;6.502;2022-09-09T06:08:47;15.10;99.90
52555;DHT22;38455;52.710;6.502;2022-09-09T06:11:21;15.10;99.90
52555;DHT22;38455;52.710;6.502;2022-09-09T06:13:48;15.10;99.90
52555;DHT22;38455;52.710;6.502;2022-09-09T06:16:18;15.10;99.90
52555;DHT22;38455;52.710;6.502;2022-09-09T06:18:44;15.10;99.90
52555;DHT22;38455;52.710;6.502;2022-09-09T06:21:18;15.10;99.90
52555;DHT22;38455;52.710;6.502;2022-09-09T06:23:44;15.10;99.90
52555;DHT22;38455;52.710;6.502;2022-09-09T06:26:16;15.20;99.90
52555;DHT22;38455;52.710;6.502;2022-09-09T06:28:43;15.20;99.90
52555;DHT22;38455;52.710;6.502;2022-09-09T06:31:12;15.20;99.90
52555;DHT22;38455;52.710;6.502;2022-09-09T06:33:39;15.30;99.90
52555;DHT22;38455;52.710;6.502;2022-09-09T06:36:10;15.30;99.90
52555;DHT22;38455;52.710;6.502;2022-09-09T06:38:37;15.30;99.90
52555;DHT22;38455;52.710;6.502;2022-09-09T06:41:03;15.30;99.90
52555;DHT22;38455;52.710;6.502;2022-09-09T06:43:29;15.30;99.90
52555;DHT22;38455;52.710;6.502;2022-09-09T06:46:14;15.30;99.90
52555;DHT22;38455;52.710;6.502;2022-09-09T06:48:40;15.40;99.90
52555;DHT22;38455;52.710;6.502;2022-09-09T06:51:19;15.30;99.90
52555;DHT22;38455;52.710;6.502;2022-09-09T06:53:51;15.30;99.90
52555;DHT22;38455;52.710;6.502;2022-09-09T06:56:18;15.40;99.90
52555;DHT22;38455;52.710;6.502;2022-09-09T06:58:44;15.50;99.90
52555;DHT22;38455;52.710;6.502;2022-09-09T07:01:12;15.60;99.90
52555;DHT22;38455;52.710;6.502;2022-09-09T07:03:39;15.70;99.90
52555;DHT22;38455;52.710;6.502;2022-09-09T07:06:06;16.40;99.90
52555;DHT22;38455;52.710;6.502;2022-09-09T07:08:33;17.30;99.90
52555;DHT22;38455;52.710;6.502;2022-09-09T07:11:03;17.80;99.90
52555;DHT22;38455;52.710;6.502;2022-09-09T07:13:33;17.90;99.90
52555;DHT22;38455;52.710;6.502;2022-09-09T07:16:10;18.60;99.90
52555;DHT22;38455;52.710;6.502;2022-09-09T07:18:36;19.60;99.90
52555;DHT22;38455;52.710;6.502;2022-09-09T07:21:03;20.60;99.90
52555;DHT22;38455;52.710;6.502;2022-09-09T07:23:30;20.70;99.90
52555;DHT22;38455;52.710;6.502;2022-09-09T07:25:56;20.70;99.90
52555;DHT22;38455;52.710;6.502;2022-09-09T07:28:23;20.40;99.90
52555;DHT22;38455;52.710;6.502;2022-09-09T07:30:59;20.50;99.90
52555;DHT22;38455;52.710;6.502;2022-09-09T07:33:25;20.80;99.90
52555;DHT22;38455;52.710;6.502;2022-09-09T07:35:52;20.80;99.90
52555;DHT22;38455;52.710;6.502;2022-09-09T07:38:18;20.60;99.90
52555;DHT22;38455;52.710;6.502;2022-09-09T07:40:44;20.00;99.90
52555;DHT22;38455;52.710;6.502;2022-09-09T07:43:10;19.90;99.90
52555;DHT22;38455;52.710;6.502;2022-09-09T07:45:36;20.80;99.90
52555;DHT22;38455;52.710;6.502;2022-09-09T07:48:02;21.70;99.90
52555;DHT22;38455;52.710;6.502;2022-09-09T07:50:28;22.50;99.90
52555;DHT22;38455;52.710;6.502;2022-09-09T07:52:54;22.80;99.90
52555;DHT22;38455;52.710;6.502;2022-09-09T07:55:20;22.40;99.90
52555;DHT22;38455;52.710;6.502;2022-09-09T07:57:46;22.10;99.90
52555;DHT22;38455;52.710;6.502;2022-09-09T08:00:12;21.50;99.90
52555;DHT22;38455;52.710;6.502;2022-09-09T08:02:40;21.10;99.90
52555;DHT22;38455;52.710;6.502;2022-09-09T08:05:06;20.80;99.90
52555;DHT22;38455;52.710;6.502;2022-09-09T08:07:32;20.60;99.90
52555;DHT22;38455;52.710;6.502;2022-09-09T08:09:57;20.30;99.90
52555;DHT22;38455;52.710;6.502;2022-09-09T08:12:23;20.20;99.90
52555;DHT22;38455;52.710;6.502;2022-09-09T08:14:49;20.30;99.90
52555;DHT22;38455;52.710;6.502;2022-09-09T08:17:14;20.30;99.90
52555;DHT22;38455;52.710;6.502;2022-09-09T08:19:40;20.30;99.90
52555;DHT22;38455;52.710;6.502;2022-09-09T08:22:06;20.10;99.90
52555;DHT22;38455;52.710;6.502;2022-09-09T08:24:33;20.10;99.90
52555;DHT22;38455;52.710;6.502;2022-09-09T08:26:58;20.10;99.90
52555;DHT22;38455;52.710;6.502;2022-09-09T08:29:25;19.90;99.90
52555;DHT22;38455;52.710;6.502;2022-09-09T08:31:52;19.90;99.90
52555;DHT22;38455;52.710;6.502;2022-09-09T08:34:20;19.80;99.90
52555;DHT22;38455;52.710;6.502;2022-09-09T08:36:48;19.80;99.90
52555;DHT22;38455;52.710;6.502;2022-09-09T08:39:16;19.70;99.90
52555;DHT22;38455;52.710;6.502;2022-09-09T08:44:50;20.20;99.90
52555;DHT22;38455;52.710;6.502;2022-09-09T08:47:49;20.70;99.90
52555;DHT22;38455;52.710;6.502;2022-09-09T08:55:41;20.40;99.90
52555;DHT22;38455;52.710;6.502;2022-09-09T08:58:17;20.20;99.90
52555;DHT22;38455;52.710;6.502;2022-09-09T09:06:33;19.50;99.90
52555;DHT22;38455;52.710;6.502;2022-09-09T09:11:37;19.70;99.90
52555;DHT22;38455;52.710;6.502;2022-09-09T09:16:52;20.40;99.90
52555;DHT22;38455;52.710;6.502;2022-09-09T09:19:19;20.70;99.90
52555;DHT22;38455;52.710;6.502;2022-09-09T09:27:16;20.50;99.90
52555;DHT22;38455;52.710;6.502;2022-09-09T09:29:44;20.30;99.90
52555;DHT22;38455;52.710;6.502;2022-09-09T09:32:14;20.30;99.90
52555;DHT22;38455;52.710;6.502;2022-09-09T09:34:41;20.30;99.90
52555;DHT22;38455;52.710;6.502;2022-09-09T09:37:33;20.30;99.90
52555;DHT22;38455;52.710;6.502;2022-09-09T09:40:15;20.10;99.90
52555;DHT22;38455;52.710;6.502;2022-09-09T09:43:00;19.90;99.90
52555;DHT22;38455;52.710;6.502;2022-09-09T09:45:33;19.60;99.90
52555;DHT22;38455;52.710;6.502;2022-09-09T09:48:04;19.50;99.90
52555;DHT22;38455;52.710;6.502;2022-09-09T09:50:31;19.60;99.90
52555;DHT22;38455;52.710;6.502;2022-09-09T09:53:04;19.70;99.90
52555;DHT22;38455;52.710;6.502;2022-09-09T09:55:33;19.70;99.90
52555;DHT22;38455;52.710;6.502;2022-09-09T09:58:05;20.00;99.90
52555;DHT22;38455;52.710;6.502;2022-09-09T10:00:32;20.20;99.90
52555;DHT22;38455;52.710;6.502;2022-09-09T10:02:59;20.50;99.90
52555;DHT22;38455;52.710;6.502;2022-09-09T10:05:27;21.00;99.90
52555;DHT22;38455;52.710;6.502;2022-09-09T10:10:47;21.70;99.90
52555;DHT22;38455;52.710;6.502;2022-09-09T10:13:32;21.70;99.90
52555;DHT22;38455;52.710;6.502;2022-09-09T10:21:56;22.10;99.90
52555;DHT22;38455;52.710;6.502;2022-09-09T10:32:41;23.60;99.90
52555;DHT22;38455;52.710;6.502;2022-09-09T10:38:24;22.80;99.90
52555;DHT22;38455;52.710;6.502;2022-09-09T10:49:23;21.00;99.90
52555;DHT22;38455;52.710;6.502;2022-09-09T10:57:36;21.30;99.90
52555;DHT22;38455;52.710;6.502;2022-09-09T11:00:14;21.40;99.90
52555;DHT22;38455;52.710;6.502;2022-09-09T11:02:41;21.20;99.90
52555;DHT22;38455;52.710;6.502;2022-09-09T11:05:27;21.10;99.90
52555;DHT22;38455;52.710;6.502;2022-09-09T11:08:09;21.00;99.90
52555;DHT22;38455;52.710;6.502;2022-09-09T11:13:13;20.60;99.90
52555;DHT22;38455;52.710;6.502;2022-09-09T11:15:53;20.40;99.90
52555;DHT22;38455;52.710;6.502;2022-09-09T11:18:22;20.30;99.90
52555;DHT22;38455;52.710;6.502;2022-09-09T11:20:51;20.20;99.90
52555;DHT22;38455;52.710;6.502;2022-09-09T11:23:51;20.10;99.90
52555;DHT22;38455;52.710;6.502;2022-09-09T11:26:30;20.10;99.90
52555;DHT22;38455;52.710;6.502;2022-09-09T11:38:05;20.70;99.90
52555;DHT22;38455;52.710;6.502;2022-09-09T11:40:32;21.00;99.90
52555;DHT22;38455;52.710;6.502;2022-09-09T11:43:18;21.20;99.90
52555;DHT22;38455;52.710;6.502;2022-09-09T11:45:55;21.60;99.90
52555;DHT22;38455;52.710;6.502;2022-09-09T11:48:35;22.00;99.90
52555;DHT22;38455;52.710;6.502;2022-09-09T11:51:12;22.10;99.90
52555;DHT22;38455;52.710;6.502;2022-09-09T11:56:43;21.80;99.90
52555;DHT22;38455;52.710;6.502;2022-09-09T11:59:27;21.60;99.90
52555;DHT22;38455;52.710;6.502;2022-09-09T12:02:23;21.50;99.90
52555;DHT22;38455;52.710;6.502;2022-09-09T12:07:39;21.10;99.90
52555;DHT22;38455;52.710;6.502;2022-09-09T12:12:35;21.20;99.90
52555;DHT22;38455;52.710;6.502;2022-09-09T12:17:50;21.60;99.90
52555;DHT22;38455;52.710;6.502;2022-09-09T12:20:31;22.00;99.90
52555;DHT22;38455;52.710;6.502;2022-09-09T12:31:20;21.70;99.90
52555;DHT22;38455;52.710;6.502;2022-09-09T12:33:49;21.20;99.90
52555;DHT22;38455;52.710;6.502;2022-09-09T12:36:24;21.30;99.90
52555;DHT22;38455;52.710;6.502;2022-09-09T12:38:51;21.70;99.90
52555;DHT22;38455;52.710;6.502;2022-09-09T12:41:26;22.10;99.90
52555;DHT22;38455;52.710;6.502;2022-09-09T12:44:08;22.30;99.90
52555;DHT22;38455;52.710;6.502;2022-09-09T12:46:42;22.30;99.90
52555;DHT22;38455;52.710;6.502;2022-09-09T12:52:06;22.00;99.90
52555;DHT22;38455;52.710;6.502;2022-09-09T12:54:34;21.90;99.90
52555;DHT22;38455;52.710;6.502;2022-09-09T12:57:00;22.00;99.90
52555;DHT22;38455;52.710;6.502;2022-09-09T12:59:35;21.80;99.90
52555;DHT22;38455;52.710;6.502;2022-09-09T13:02:00;21.90;99.90
52555;DHT22;38455;52.710;6.502;2022-09-09T13:04:26;22.00;99.90
52555;DHT22;38455;52.710;6.502;2022-09-09T13:06:52;22.10;99.90
52555;DHT22;38455;52.710;6.502;2022-09-09T13:09:18;22.30;99.90
52555;DHT22;38455;52.710;6.502;2022-09-09T13:11:52;22.30;99.90
52555;DHT22;38455;52.710;6.502;2022-09-09T13:14:29;22.30;99.90
52555;DHT22;38455;52.710;6.502;2022-09-09T13:17:02;22.10;99.90
52555;DHT22;38455;52.710;6.502;2022-09-09T13:19:38;21.80;99.90
52555;DHT22;38455;52.710;6.502;2022-09-09T13:22:26;21.60;99.90
52555;DHT22;38455;52.710;6.502;2022-09-09T13:27:33;20.90;99.90
52555;DHT22;38455;52.710;6.502;2022-09-09T13:30:00;20.90;99.90
52555;DHT22;38455;52.710;6.502;2022-09-09T13:32:26;21.00;99.90
52555;DHT22;38455;52.710;6.502;2022-09-09T13:34:57;20.90;99.90
52555;DHT22;38455;52.710;6.502;2022-09-09T13:37:36;21.10;99.90
52555;DHT22;38455;52.710;6.502;2022-09-09T13:40:03;21.60;99.90
52555;DHT22;38455;52.710;6.502;2022-09-09T13:42:32;22.10;99.90
52555;DHT22;38455;52.710;6.502;2022-09-09T13:45:01;22.10;99.90
52555;DHT22;38455;52.710;6.502;2022-09-09T13:47:35;21.80;99.90
52555;DHT22;38455;52.710;6.502;2022-09-09T13:52:54;22.10;99.90
52555;DHT22;38455;52.710;6.502;2022-09-09T13:55:21;22.90;99.90
52555;DHT22;38455;52.710;6.502;2022-09-09T13:57:57;23.40;99.90
52555;DHT22;38455;52.710;6.502;2022-09-09T14:00:24;23.60;99.90
52555;DHT22;38455;52.710;6.502;2022-09-09T14:02:51;23.50;99.90
52555;DHT22;38455;52.710;6.502;2022-09-09T14:05:18;23.10;99.90
52555;DHT22;38455;52.710;6.502;2022-09-09T14:07:44;22.70;99.90
52555;DHT22;38455;52.710;6.502;2022-09-09T14:10:11;22.30;99.90
52555;DHT22;38455;52.710;6.502;2022-09-09T14:12:37;21.90;99.90
52555;DHT22;38455;52.710;6.502;2022-09-09T14:15:05;21.50;99.90
52555;DHT22;38455;52.710;6.502;2022-09-09T14:17:31;21.40;99.90
52555;DHT22;38455;52.710;6.502;2022-09-09T14:19:57;21.30;99.90
52555;DHT22;38455;52.710;6.502;2022-09-09T14:22:23;21.20;99.90
52555;DHT22;38455;52.710;6.502;2022-09-09T14:24:49;21.30;99.90
52555;DHT22;38455;52.710;6.502;2022-09-09T14:27:16;21.20;99.90
52555;DHT22;38455;52.710;6.502;2022-09-09T14:29:42;21.10;99.90
52555;DHT22;38455;52.710;6.502;2022-09-09T14:32:10;21.00;99.90
52555;DHT22;38455;52.710;6.502;2022-09-09T14:34:35;20.90;99.90
52555;DHT22;38455;52.710;6.502;2022-09-09T14:37:01;20.80;99.90
52555;DHT22;38455;52.710;6.502;2022-09-09T14:39:27;20.60;99.90
52555;DHT22;38455;52.710;6.502;2022-09-09T14:41:52;20.70;99.90
52555;DHT22;38455;52.710;6.502;2022-09-09T14:44:18;20.70;99.90
52555;DHT22;38455;52.710;6.502;2022-09-09T14:46:44;20.70;99.90
52555;DHT22;38455;52.710;6.502;2022-09-09T14:49:10;20.70;99.90
52555;DHT22;38455;52.710;6.502;2022-09-09T14:51:36;20.70;99.90
52555;DHT22;38455;52.710;6.502;2022-09-09T14:54:02;20.70;99.90
52555;DHT22;38455;52.710;6.502;2022-09-09T14:56:31;20.70;99.90
52555;DHT22;38455;52.710;6.502;2022-09-09T14:58:58;20.60;99.90
52555;DHT22;38455;52.710;6.502;2022-09-09T15:01:26;20.60;99.90
52555;DHT22;38455;52.710;6.502;2022-09-09T15:04:00;20.70;99.90
52555;DHT22;38455;52.710;6.502;2022-09-09T15:06:28;20.70;99.90
52555;DHT22;38455;52.710;6.502;2022-09-09T15:08:55;20.70;99.90
52555;DHT22;38455;52.710;6.502;2022-09-09T15:11:26;20.60;99.90
52555;DHT22;38455;52.710;6.502;2022-09-09T15:13:53;20.50;99.90
52555;DHT22;38455;52.710;6.502;2022-09-09T15:16:20;20.40;99.90
52555;DHT22;38455;52.710;6.502;2022-09-09T15:18:49;20.30;99.90
52555;DHT22;38455;52.710;6.502;2022-09-09T15:21:18;20.20;99.90
52555;DHT22;38455;52.710;6.502;2022-09-09T15:23:48;20.10;99.90
52555;DHT22;38455;52.710;6.502;2022-09-09T15:26:14;20.00;99.90
52555;DHT22;38455;52.710;6.502;2022-09-09T15:28:41;19.90;99.90
52555;DHT22;38455;52.710;6.502;2022-09-09T15:31:29;19.90;99.90
52555;DHT22;38455;52.710;6.502;2022-09-09T15:34:04;19.70;99.90
52555;DHT22;38455;52.710;6.502;2022-09-09T15:36:33;19.60;99.90
52555;DHT22;38455;52.710;6.502;2022-09-09T15:39:00;19.60;99.90
52555;DHT22;38455;52.710;6.502;2022-09-09T15:41:27;19.60;99.90
52555;DHT22;38455;52.710;6.502;2022-09-09T15:43:54;19.60;99.90
52555;DHT22;38455;52.710;6.502;2022-09-09T15:49:18;19.80;99.90
52555;DHT22;38455;52.710;6.502;2022-09-09T15:51:56;20.00;99.90
52555;DHT22;38455;52.710;6.502;2022-09-09T15:54:23;20.10;99.90
52555;DHT22;38455;52.710;6.502;2022-09-09T15:56:56;20.10;99.90
52555;DHT22;38455;52.710;6.502;2022-09-09T15:59:23;20.10;99.90
52555;DHT22;38455;52.710;6.502;2022-09-09T16:01:49;20.10;99.90
52555;DHT22;38455;52.710;6.502;2022-09-09T16:04:18;20.10;99.90
52555;DHT22;38455;52.710;6.502;2022-09-09T16:07:00;20.00;99.90
52555;DHT22;38455;52.710;6.502;2022-09-09T16:09:26;20.00;99.90
52555;DHT22;38455;52.710;6.502;2022-09-09T16:11:53;19.90;99.90
52555;DHT22;38455;52.710;6.502;2022-09-09T16:14:21;19.80;99.90
52555;DHT22;38455;52.710;6.502;2022-09-09T16:16:47;19.80;99.90
52555;DHT22;38455;52.710;6.502;2022-09-09T16:19:13;19.80;99.90
52555;DHT22;38455;52.710;6.502;2022-09-09T16:21:45;19.70;99.90
52555;DHT22;38455;52.710;6.502;2022-09-09T16:24:13;19.60;99.90
52555;DHT22;38455;52.710;6.502;2022-09-09T16:26:42;19.50;99.90
52555;DHT22;38455;52.710;6.502;2022-09-09T16:29:11;19.40;99.90
52555;DHT22;38455;52.710;6.502;2022-09-09T16:31:37;19.40;99.90
52555;DHT22;38455;52.710;6.502;2022-09-09T16:34:03;19.30;99.90
52555;DHT22;38455;52.710;6.502;2022-09-09T16:36:31;19.10;99.90
52555;DHT22;38455;52.710;6.502;2022-09-09T16:38:58;19.20;99.90
52555;DHT22;38455;52.710;6.502;2022-09-09T16:41:26;19.10;99.90
52555;DHT22;38455;52.710;6.502;2022-09-09T16:43:57;19.00;99.90
52555;DHT22;38455;52.710;6.502;2022-09-09T16:46:26;18.90;99.90
52555;DHT22;38455;52.710;6.502;2022-09-09T16:48:53;18.90;99.90
52555;DHT22;38455;52.710;6.502;2022-09-09T16:51:25;18.80;99.90
52555;DHT22;38455;52.710;6.502;2022-09-09T16:53:53;18.80;99.90
52555;DHT22;38455;52.710;6.502;2022-09-09T16:56:24;18.80;99.90
52555;DHT22;38455;52.710;6.502;2022-09-09T16:58:59;18.70;99.90
52555;DHT22;38455;52.710;6.502;2022-09-09T17:01:33;18.70;99.90
52555;DHT22;38455;52.710;6.502;2022-09-09T17:04:01;18.60;99.90
52555;DHT22;38455;52.710;6.502;2022-09-09T17:06:29;18.60;99.90
52555;DHT22;38455;52.710;6.502;2022-09-09T17:08:59;18.60;99.90
52555;DHT22;38455;52.710;6.502;2022-09-09T17:11:26;18.60;99.90
52555;DHT22;38455;52.710;6.502;2022-09-09T17:13:53;18.60;99.90
52555;DHT22;38455;52.710;6.502;2022-09-09T17:16:21;18.50;99.90
52555;DHT22;38455;52.710;6.502;2022-09-09T17:18:50;18.60;99.90
52555;DHT22;38455;52.710;6.502;2022-09-09T17:21:19;18.60;99.90
52555;DHT22;38455;52.710;6.502;2022-09-09T17:23:46;18.60;99.90
52555;DHT22;38455;52.710;6.502;2022-09-09T17:26:14;18.50;99.90
52555;DHT22;38455;52.710;6.502;2022-09-09T17:28:42;18.50;99.90
52555;DHT22;38455;52.710;6.502;2022-09-09T17:31:09;18.50;99.90
52555;DHT22;38455;52.710;6.502;2022-09-09T17:33:38;18.60;99.90
52555;DHT22;38455;52.710;6.502;2022-09-09T17:36:28;18.50;99.90
52555;DHT22;38455;52.710;6.502;2022-09-09T17:38:54;18.50;99.90
52555;DHT22;38455;52.710;6.502;2022-09-09T17:41:26;18.50;99.90
52555;DHT22;38455;52.710;6.502;2022-09-09T17:43:52;18.50;99.90
52555;DHT22;38455;52.710;6.502;2022-09-09T17:46:19;18.40;99.90
52555;DHT22;38455;52.710;6.502;2022-09-09T17:48:47;18.40;99.90
52555;DHT22;38455;52.710;6.502;2022-09-09T17:51:15;18.40;99.90
52555;DHT22;38455;52.710;6.502;2022-09-09T17:53:46;18.20;99.90
52555;DHT22;38455;52.710;6.502;2022-09-09T17:56:14;18.20;99.90
52555;DHT22;38455;52.710;6.502;2022-09-09T17:58:40;18.20;99.90
52555;DHT22;38455;52.710;6.502;2022-09-09T18:01:17;18.20;99.90
52555;DHT22;38455;52.710;6.502;2022-09-09T18:03:43;18.20;99.90
52555;DHT22;38455;52.710;6.502;2022-09-09T18:06:12;18.10;99.90